Airfield :
LOGIN :

Register | Disclaimer

   EN    FR    IT 

 










Legend :    VFR   Marginal VFR   IFR   Intensive IFR   Very Intensive IFR
Visi :
Ceiling :
>= 8 km
>= 3000ft
5 to 8 km
1000 to 3000 ft
1500m to 5 km
500 to 1000 ft
800 to 1500m
200 to 500 ft
< 800m
< 200 ft
Symbols :   Thunderstorms  Fog  Heavy snow  Heavy precipitations  Wind > 20 kt
SIGMETs :     Misc.  Thunderstorms  Icing  Turbulence  Mountain Waves  Volcanic Ashes






- Airport Elevation : 1213 ft
- IATA code : SCQ


LEST - Santiago de Compostela

CURRENT METAR :
  • 080600Z 14003KT 0300 R17/0350N R35/0275N FG VV001 09/09 Q1021 NOSIG

EXPIRED METARs :
  • 080530Z 15003KT 0400 R17/0400N R35/0275N FG VV001 10/10 Q1021 NOSIG
  • 080500Z 17003KT 0400 R17/0250N R35/0250N FG VV001 10/10 Q1021 NOSIG
  • 080430Z 12004KT 0400 R17/0250N R35/0375N FG VV001 10/10 Q1021 NOSIG
  • 080400Z VRB01KT 0700 R17/0800N R35/1000U FG VV001 11/11 Q1022 NOSIG
  • 080330Z VRB02KT 0400 R17/0550U R35/0325N FG VV001 10/10 Q1022 NOSIG

TAF TAF LEST
Valid from the 08 at 06:00 until the 09 at 06:00 UTC


080500Z 0806/0906 VRB04KT 9999 SCT030 TX19/0814Z TN10/0806Z
TEMPO 0806/0809 3000 BR BKN010
TEMPO 0806/0808 0350 FG VV001
TEMPO 0812/0818 22010KT
TEMPO 0900/0906 3000 RA



MET'MAP, your aeronautical weather chart ! - Copyright ORBIFLY December 2007 - Disclaimer

ORBIFLY MET'MAP TEAM :

Programming & Development : Alexandra Zaïnal
Concept & original design : Baudouin d'Aumeries
Assistance for programming : Marc-Olivier Méhu
Technical & hardware support : Manuel Goepfert

Contact : metmap@orbifly.com




SOURCES & CREDITS :

   NOAA